Time;durP1;ratioP1;P1;durP2;ratioP2;P2;SDS_P1;SDS_P2;PMS_P1;PMS_P2;Temp;Humidity;BMP_temperature;BMP_pressure;BME280_temperature;BME280_humidity;BME280_pressure;Samples;Min_cycle;Max_cycle;Signal;HPM_P1;HPM_P2
2021/04/09 00:01:25;;;;;;;4.90;1.80;;;;;;;;;;5112694;27;20034;-50
2021/04/09 00:03:50;;;;;;;3.13;2.00;;;;;;;;;;5116832;27;20016;-50
2021/04/09 00:06:15;;;;;;;4.57;1.60;;;;;;;;;;5124603;27;20462;-52
2021/04/09 00:08:40;;;;;;;1.77;1.50;;;;;;;;;;5118181;27;20084;-49
2021/04/09 00:11:06;;;;;;;4.23;1.70;;;;;;;;;;5114873;27;20256;-52
2021/04/09 00:13:31;;;;;;;4.63;2.07;;;;;;;;;;5135802;27;20115;-52
2021/04/09 00:15:56;;;;;;;4.93;2.07;;;;;;;;;;5130156;27;20024;-52
2021/04/09 00:18:21;;;;;;;5.40;1.80;;;;;;;;;;5135422;27;20167;-54
2021/04/09 00:20:47;;;;;;;5.50;2.17;;;;;;;;;;5133684;27;20015;-52
2021/04/09 00:23:12;;;;;;;4.07;2.20;;;;;;;;;;5133787;27;20012;-55
2021/04/09 00:25:37;;;;;;;5.03;2.13;;;;;;;;;;5133844;27;20030;-51
2021/04/09 00:28:02;;;;;;;4.50;2.00;;;;;;;;;;5134525;27;20016;-52
2021/04/09 00:30:28;;;;;;;6.07;2.47;;;;;;;;;;5120810;27;20030;-53
2021/04/09 00:32:53;;;;;;;3.77;2.30;;;;;;;;;;5127071;27;20020;-55
2021/04/09 00:35:19;;;;;;;3.80;2.27;;;;;;;;;;5130868;27;20429;-51
2021/04/09 00:37:44;;;;;;;4.60;2.57;;;;;;;;;;5115199;28;20011;-54
2021/04/09 00:40:11;;;;;;;6.40;2.17;;;;;;;;;;5117655;27;20030;-54
2021/04/09 00:42:36;;;;;;;5.20;2.77;;;;;;;;;;5121953;27;20387;-51
2021/04/09 00:45:02;;;;;;;5.27;2.77;;;;;;;;;;5114996;27;20016;-54
2021/04/09 00:47:27;;;;;;;4.50;2.73;;;;;;;;;;5127562;27;20061;-51
2021/04/09 00:49:53;;;;;;;3.90;2.70;;;;;;;;;;5122546;27;20016;-51
2021/04/09 00:52:18;;;;;;;3.40;2.50;;;;;;;;;;5111944;28;20043;-53
2021/04/09 00:54:43;;;;;;;7.47;2.83;;;;;;;;;;5121083;27;20493;-52
2021/04/09 00:57:09;;;;;;;4.07;2.73;;;;;;;;;;5133928;27;20382;-52
2021/04/09 00:59:34;;;;;;;5.40;2.80;;;;;;;;;;5130971;27;20105;-49
2021/04/09 01:02:00;;;;;;;5.57;2.70;;;;;;;;;;5130786;27;20069;-53
2021/04/09 01:04:25;;;;;;;4.90;3.10;;;;;;;;;;5131290;27;20376;-52
2021/04/09 01:06:50;;;;;;;5.73;3.27;;;;;;;;;;5122281;27;20011;-50
2021/04/09 01:09:15;;;;;;;6.60;3.20;;;;;;;;;;5132503;27;20027;-53
2021/04/09 01:11:41;;;;;;;5.63;3.00;;;;;;;;;;5131813;27;20164;-50
2021/04/09 01:14:08;;;;;;;6.20;2.90;;;;;;;;;;5126448;27;20046;-50
2021/04/09 01:16:45;;;;;;;5.47;2.93;;;;;;;;;;5127832;27;20019;-53
2021/04/09 01:19:39;;;;;;;4.73;3.67;;;;;;;;;;5134241;27;20029;-49
2021/04/09 01:22:06;;;;;;;4.90;3.00;;;;;;;;;;5127835;27;20103;-54
2021/04/09 01:24:50;;;;;;;5.47;3.33;;;;;;;;;;5119528;27;20389;-51
2021/04/09 01:27:24;;;;;;;4.77;3.00;;;;;;;;;;5132139;27;20023;-54
2021/04/09 01:29:52;;;;;;;4.70;3.00;;;;;;;;;;5133291;27;20039;-52
2021/04/09 01:32:18;;;;;;;6.13;3.13;;;;;;;;;;5127965;27;20105;-52
2021/04/09 01:34:55;;;;;;;9.37;3.80;;;;;;;;;;5129829;27;20019;-49
2021/04/09 01:37:23;;;;;;;4.47;3.07;;;;;;;;;;5134070;27;20027;-53
2021/04/09 01:39:50;;;;;;;7.77;4.10;;;;;;;;;;5129013;27;20505;-49
2021/04/09 01:42:16;;;;;;;8.70;4.23;;;;;;;;;;5130234;27;20038;-48
2021/04/09 01:44:42;;;;;;;8.87;4.37;;;;;;;;;;5132266;27;20015;-51
2021/04/09 01:47:08;;;;;;;8.17;3.60;;;;;;;;;;5133858;27;20064;-49
2021/04/09 01:49:35;;;;;;;12.37;6.27;;;;;;;;;;5129245;27;20051;-52
2021/04/09 01:52:01;;;;;;;12.80;4.97;;;;;;;;;;5118477;27;20043;-51
2021/04/09 01:54:27;;;;;;;10.53;5.03;;;;;;;;;;5132290;27;20037;-52
2021/04/09 01:56:53;;;;;;;7.90;4.90;;;;;;;;;;5132346;27;20068;-52
2021/04/09 01:59:19;;;;;;;8.93;4.33;;;;;;;;;;5122921;27;20020;-49
2021/04/09 02:01:45;;;;;;;9.70;5.07;;;;;;;;;;5128700;27;20022;-49
2021/04/09 02:04:11;;;;;;;8.07;4.57;;;;;;;;;;5133762;27;20394;-50
2021/04/09 02:06:38;;;;;;;7.47;5.07;;;;;;;;;;5120831;27;20015;-51
2021/04/09 02:09:03;;;;;;;8.37;4.97;;;;;;;;;;5133294;27;20583;-50
2021/04/09 02:11:31;;;;;;;8.27;4.17;;;;;;;;;;5128604;27;20019;-50
2021/04/09 02:13:57;;;;;;;5.73;3.80;;;;;;;;;;5132156;27;20110;-52
2021/04/09 02:16:22;;;;;;;7.17;3.70;;;;;;;;;;5131704;27;20562;-51
2021/04/09 02:18:48;;;;;;;6.20;4.63;;;;;;;;;;5133075;27;20038;-51
2021/04/09 02:21:13;;;;;;;5.67;4.33;;;;;;;;;;5124721;27;20019;-48
2021/04/09 02:23:38;;;;;;;7.53;4.63;;;;;;;;;;5121362;27;20015;-52
2021/04/09 02:26:04;;;;;;;8.37;4.37;;;;;;;;;;5124777;27;20084;-51
2021/04/09 02:28:29;;;;;;;6.73;4.57;;;;;;;;;;5117568;27;20011;-50
2021/04/09 02:31:11;;;;;;;7.77;4.30;;;;;;;;;;5119480;27;20577;-54
2021/04/09 02:33:37;;;;;;;6.03;4.23;;;;;;;;;;5130157;27;20019;-52
2021/04/09 02:36:12;;;;;;;5.80;4.23;;;;;;;;;;5132058;27;20015;-54
2021/04/09 02:38:40;;;;;;;7.97;4.30;;;;;;;;;;5123689;27;20027;-49
2021/04/09 02:41:05;;;;;;;6.43;4.47;;;;;;;;;;5117584;27;20386;-53
2021/04/09 02:43:31;;;;;;;8.20;4.77;;;;;;;;;;5117780;28;20663;-50
2021/04/09 02:45:57;;;;;;;6.73;3.87;;;;;;;;;;5132779;27;20026;-52
2021/04/09 02:48:25;;;;;;;7.70;4.43;;;;;;;;;;5123198;27;20084;-49
2021/04/09 02:50:51;;;;;;;7.47;4.63;;;;;;;;;;5128291;27;20040;-47
2021/04/09 02:53:24;;;;;;;4.77;3.73;;;;;;;;;;5123920;28;20095;-53
2021/04/09 02:55:50;;;;;;;7.97;3.63;;;;;;;;;;5118934;27;20016;-52
2021/04/09 02:58:16;;;;;;;5.60;3.80;;;;;;;;;;5123828;27;21208;-53
2021/04/09 03:00:45;;;;;;;8.80;4.20;;;;;;;;;;5130195;27;20012;-51
2021/04/09 03:03:11;;;;;;;6.60;4.13;;;;;;;;;;5129591;27;20099;-54
2021/04/09 03:05:38;;;;;;;7.37;4.43;;;;;;;;;;5131484;27;20565;-50
2021/04/09 03:08:03;;;;;;;5.97;4.10;;;;;;;;;;5137367;27;20047;-53
2021/04/09 03:10:28;;;;;;;5.17;4.07;;;;;;;;;;5139684;27;20023;-56
2021/04/09 03:12:53;;;;;;;5.97;3.83;;;;;;;;;;5134440;27;20019;-55
2021/04/09 03:15:27;;;;;;;7.63;4.07;;;;;;;;;;5138105;27;20054;-54
2021/04/09 03:17:53;;;;;;;7.13;4.07;;;;;;;;;;5124044;27;20486;-50
2021/04/09 03:20:18;;;;;;;7.47;4.17;;;;;;;;;;5139841;27;20063;-50
2021/04/09 03:22:43;;;;;;;6.17;3.97;;;;;;;;;;5134348;27;20491;-51
2021/04/09 03:25:09;;;;;;;6.40;3.73;;;;;;;;;;5138115;27;20059;-52
2021/04/09 03:27:34;;;;;;;5.93;3.57;;;;;;;;;;5137438;27;20064;-52
2021/04/09 03:29:59;;;;;;;8.50;3.73;;;;;;;;;;5131328;27;20026;-49
2021/04/09 03:32:25;;;;;;;7.77;4.60;;;;;;;;;;5128848;27;20027;-50
2021/04/09 03:34:50;;;;;;;7.73;4.13;;;;;;;;;;5125678;27;20019;-53
2021/04/09 03:37:15;;;;;;;8.83;4.03;;;;;;;;;;5135321;27;20026;-49
2021/04/09 03:39:41;;;;;;;7.23;3.57;;;;;;;;;;5133509;27;20023;-51
2021/04/09 03:42:06;;;;;;;8.07;3.43;;;;;;;;;;5126961;27;20026;-53
2021/04/09 03:44:32;;;;;;;8.80;4.23;;;;;;;;;;5132161;27;20415;-52
2021/04/09 03:46:57;;;;;;;7.03;4.17;;;;;;;;;;5131408;27;20015;-48
2021/04/09 03:49:22;;;;;;;7.10;3.87;;;;;;;;;;5132116;27;20064;-48
2021/04/09 03:51:49;;;;;;;8.77;4.10;;;;;;;;;;5126922;27;20043;-52
2021/04/09 03:54:15;;;;;;;5.77;3.73;;;;;;;;;;5129878;27;20173;-52
2021/04/09 03:56:41;;;;;;;7.87;4.47;;;;;;;;;;5130630;27;20114;-47
2021/04/09 03:59:06;;;;;;;5.37;3.80;;;;;;;;;;5133615;27;20018;-53
2021/04/09 04:01:32;;;;;;;6.93;4.17;;;;;;;;;;5128900;27;20561;-51
2021/04/09 04:03:57;;;;;;;6.87;3.97;;;;;;;;;;5131898;27;20011;-49
2021/04/09 04:06:22;;;;;;;8.17;4.23;;;;;;;;;;5133439;27;20027;-51
2021/04/09 04:08:48;;;;;;;6.07;4.07;;;;;;;;;;5130599;27;20015;-50
2021/04/09 04:11:14;;;;;;;8.80;4.03;;;;;;;;;;5129233;27;20294;-48
2021/04/09 04:13:39;;;;;;;8.17;4.73;;;;;;;;;;5135967;27;20016;-50
2021/04/09 04:16:04;;;;;;;7.47;4.50;;;;;;;;;;5131254;27;20052;-54
2021/04/09 04:18:30;;;;;;;4.73;4.23;;;;;;;;;;5132460;27;20027;-50
2021/04/09 04:20:55;;;;;;;8.17;4.60;;;;;;;;;;5122934;27;20386;-51
2021/04/09 04:23:20;;;;;;;6.90;4.20;;;;;;;;;;5132896;27;20054;-52
2021/04/09 04:25:45;;;;;;;6.73;4.60;;;;;;;;;;5123822;27;20118;-51
2021/04/09 04:28:11;;;;;;;7.33;4.83;;;;;;;;;;5133685;27;20011;-53
2021/04/09 04:30:36;;;;;;;6.00;4.03;;;;;;;;;;5122569;27;20092;-53
2021/04/09 04:33:01;;;;;;;6.27;4.60;;;;;;;;;;5129070;27;20011;-53
2021/04/09 04:35:27;;;;;;;5.67;4.00;;;;;;;;;;5133003;27;20011;-50
2021/04/09 04:37:52;;;;;;;7.30;4.50;;;;;;;;;;5134109;27;20355;-53
2021/04/09 04:40:17;;;;;;;8.00;4.37;;;;;;;;;;5131956;27;20042;-50
2021/04/09 04:42:42;;;;;;;7.03;4.50;;;;;;;;;;5132273;27;20054;-52
2021/04/09 04:45:08;;;;;;;6.20;4.33;;;;;;;;;;5128495;27;20110;-54
2021/04/09 04:47:33;;;;;;;8.20;5.17;;;;;;;;;;5128266;27;20022;-52
2021/04/09 04:49:58;;;;;;;8.87;4.73;;;;;;;;;;5131203;27;20011;-51
2021/04/09 04:52:24;;;;;;;6.27;4.33;;;;;;;;;;5128995;27;20084;-49
2021/04/09 04:54:49;;;;;;;8.40;4.53;;;;;;;;;;5134454;27;20076;-50
2021/04/09 04:57:14;;;;;;;7.93;4.70;;;;;;;;;;5124770;27;20102;-52
2021/04/09 04:59:39;;;;;;;8.47;4.70;;;;;;;;;;5127713;27;20107;-52
2021/04/09 05:02:05;;;;;;;9.53;4.60;;;;;;;;;;5127413;27;20509;-49
2021/04/09 05:04:30;;;;;;;8.10;4.93;;;;;;;;;;5132216;27;20015;-54
2021/04/09 05:06:55;;;;;;;10.27;5.20;;;;;;;;;;5134103;27;20011;-52
2021/04/09 05:09:20;;;;;;;8.90;4.73;;;;;;;;;;5120109;27;20038;-51
2021/04/09 05:11:45;;;;;;;8.73;4.30;;;;;;;;;;5122151;27;20529;-51
2021/04/09 05:14:11;;;;;;;8.73;4.70;;;;;;;;;;5131637;27;20019;-51
2021/04/09 05:16:36;;;;;;;9.47;4.80;;;;;;;;;;5124941;27;20102;-51
2021/04/09 05:19:01;;;;;;;9.83;5.33;;;;;;;;;;5131299;27;20923;-52
2021/04/09 05:21:27;;;;;;;8.47;5.13;;;;;;;;;;5121219;27;20114;-50
2021/04/09 05:23:52;;;;;;;8.93;5.43;;;;;;;;;;5133641;27;20030;-51
2021/04/09 05:26:18;;;;;;;8.63;5.07;;;;;;;;;;5132027;27;20030;-51
2021/04/09 05:28:43;;;;;;;8.60;5.57;;;;;;;;;;5131010;27;20541;-55
2021/04/09 05:31:08;;;;;;;10.33;6.27;;;;;;;;;;5130886;27;20023;-53
2021/04/09 05:33:33;;;;;;;10.17;5.77;;;;;;;;;;5126818;27;20011;-53
2021/04/09 05:35:58;;;;;;;9.17;5.93;;;;;;;;;;5134127;27;20019;-52
2021/04/09 05:38:24;;;;;;;9.03;5.87;;;;;;;;;;5120378;27;20111;-52
2021/04/09 05:40:49;;;;;;;9.17;6.23;;;;;;;;;;5124145;27;20057;-53
2021/04/09 05:43:14;;;;;;;8.03;7.07;;;;;;;;;;5131410;27;20439;-52
2021/04/09 05:45:39;;;;;;;9.40;6.50;;;;;;;;;;5134210;27;20041;-54
2021/04/09 05:48:06;;;;;;;10.93;7.43;;;;;;;;;;5117403;27;20019;-52
2021/04/09 05:50:32;;;;;;;8.60;6.40;;;;;;;;;;5115670;27;20155;-53
2021/04/09 05:52:57;;;;;;;8.83;6.27;;;;;;;;;;5126299;27;20491;-54
2021/04/09 05:55:23;;;;;;;10.33;6.83;;;;;;;;;;5130854;27;20058;-55
2021/04/09 05:57:48;;;;;;;12.17;7.67;;;;;;;;;;5132634;27;20080;-54
2021/04/09 06:00:14;;;;;;;11.60;7.60;;;;;;;;;;5127167;27;20024;-53
2021/04/09 06:02:39;;;;;;;10.67;6.87;;;;;;;;;;5130532;27;20080;-55
2021/04/09 06:05:05;;;;;;;10.43;6.77;;;;;;;;;;5128269;27;20114;-54
2021/04/09 06:07:30;;;;;;;8.57;6.33;;;;;;;;;;5119182;27;20068;-54
2021/04/09 06:09:56;;;;;;;8.87;6.33;;;;;;;;;;5129495;27;20019;-51
2021/04/09 06:12:21;;;;;;;10.37;7.30;;;;;;;;;;5114813;27;20085;-51
2021/04/09 06:14:46;;;;;;;10.73;6.57;;;;;;;;;;5129841;27;20080;-55
2021/04/09 06:17:11;;;;;;;8.40;6.07;;;;;;;;;;5125937;27;20024;-54
2021/04/09 06:19:37;;;;;;;8.80;6.07;;;;;;;;;;5123601;27;20042;-53
2021/04/09 06:22:02;;;;;;;7.90;5.47;;;;;;;;;;5125210;27;20054;-52
2021/04/09 06:24:28;;;;;;;7.83;5.83;;;;;;;;;;5127101;27;20098;-51
2021/04/09 06:26:53;;;;;;;9.23;5.70;;;;;;;;;;5131010;27;20027;-53
2021/04/09 06:29:18;;;;;;;7.50;5.27;;;;;;;;;;5122545;27;20015;-54
2021/04/09 06:31:43;;;;;;;7.50;6.00;;;;;;;;;;5122433;27;20084;-48
2021/04/09 06:34:08;;;;;;;6.00;5.40;;;;;;;;;;5128197;27;20029;-52
2021/04/09 06:36:34;;;;;;;8.13;5.40;;;;;;;;;;5122456;27;20023;-55
2021/04/09 06:38:59;;;;;;;9.33;4.93;;;;;;;;;;5113728;28;20376;-52
2021/04/09 06:41:24;;;;;;;8.27;5.40;;;;;;;;;;5125390;27;20440;-56
2021/04/09 06:43:49;;;;;;;6.90;5.97;;;;;;;;;;5126957;27;20030;-52
2021/04/09 06:46:15;;;;;;;6.20;4.57;;;;;;;;;;5132944;27;20102;-54
2021/04/09 06:48:41;;;;;;;7.73;5.40;;;;;;;;;;5131217;27;20023;-51
2021/04/09 06:51:07;;;;;;;7.40;4.50;;;;;;;;;;5118520;27;20058;-53
2021/04/09 06:53:32;;;;;;;6.15;5.32;;;;;;;;;;5122750;28;20198;-53
2021/04/09 06:55:59;;;;;;;4.93;2.67;;;;;;;;;;5127792;27;20098;-55
2021/04/09 06:58:24;;;;;;;7.38;4.60;;;;;;;;;;5124924;27;20027;-53
2021/04/09 07:00:51;;;;;;;5.75;4.93;;;;;;;;;;5120890;27;20023;-52
2021/04/09 07:03:16;;;;;;;7.47;4.63;;;;;;;;;;5124170;28;20030;-51
2021/04/09 07:05:41;;;;;;;9.95;4.55;;;;;;;;;;5123273;28;20023;-53
2021/04/09 07:08:06;;;;;;;5.55;4.45;;;;;;;;;;5119208;28;20114;-54
2021/04/09 07:10:32;;;;;;;7.80;4.68;;;;;;;;;;5118600;28;20016;-52
2021/04/09 07:13:04;;;;;;;7.35;5.18;;;;;;;;;;5121916;27;20087;-54
2021/04/09 07:15:36;;;;;;;5.78;4.32;;;;;;;;;;5121060;28;20393;-49
2021/04/09 07:18:01;;;;;;;7.22;5.18;;;;;;;;;;5135068;27;20538;-52
2021/04/09 07:20:31;;;;;;;6.22;4.30;;;;;;;;;;5126744;28;20019;-54
2021/04/09 07:22:57;;;;;;;5.45;4.03;;;;;;;;;;5124006;27;20384;-52
2021/04/09 07:25:27;;;;;;;6.13;4.28;;;;;;;;;;5128935;27;20053;-53
2021/04/09 07:28:09;;;;;;;6.60;4.80;;;;;;;;;;5132057;27;20470;-55
2021/04/09 07:30:35;;;;;;;7.53;5.38;;;;;;;;;;5125114;28;20015;-48
2021/04/09 07:33:07;;;;;;;5.90;4.85;;;;;;;;;;5121983;27;20424;-54
2021/04/09 07:35:49;;;;;;;6.50;3.80;;;;;;;;;;5127721;27;20019;-54
2021/04/09 07:38:25;;;;;;;6.20;4.78;;;;;;;;;;5125080;28;20081;-52
2021/04/09 07:40:51;;;;;;;5.95;4.10;;;;;;;;;;5124578;27;20113;-50
2021/04/09 07:43:16;;;;;;;5.72;4.85;;;;;;;;;;5124617;27;20482;-52
2021/04/09 07:45:42;;;;;;;5.22;3.53;;;;;;;;;;5148793;27;20147;-50
2021/04/09 07:48:07;;;;;;;6.53;3.88;;;;;;;;;;5121444;27;20015;-51
2021/04/09 07:50:34;;;;;;;6.82;4.47;;;;;;;;;;5133163;27;20089;-51
2021/04/09 07:52:59;;;;;;;6.10;3.88;;;;;;;;;;5128104;27;20023;-50
2021/04/09 07:55:26;;;;;;;4.70;3.67;;;;;;;;;;5128000;27;20427;-51
2021/04/09 07:57:51;;;;;;;4.93;3.45;;;;;;;;;;5121136;27;20023;-50
2021/04/09 08:00:26;;;;;;;6.38;3.58;;;;;;;;;;5129177;27;20029;-50
2021/04/09 08:02:52;;;;;;;;;;;;;;;;;;5123886;27;20023;-52
2021/04/09 08:05:18;;;;;;;6.82;4.32;;;;;;;;;;5117200;27;20332;-52
2021/04/09 08:07:43;;;;;;;5.05;3.78;;;;;;;;;;5116814;27;20031;-48
2021/04/09 08:10:09;;;;;;;5.70;4.20;;;;;;;;;;5120265;27;20012;-54
2021/04/09 08:12:36;;;;;;;6.75;3.42;;;;;;;;;;5118685;27;20531;-54
2021/04/09 08:15:20;;;;;;;5.80;4.30;;;;;;;;;;5123685;27;20033;-55
2021/04/09 08:18:00;;;;;;;5.45;3.65;;;;;;;;;;5131045;27;20209;-54
2021/04/09 08:20:26;;;;;;;4.57;3.25;;;;;;;;;;5120793;27;20023;-53
2021/04/09 08:22:51;;;;;;;4.03;2.80;;;;;;;;;;5125946;27;20023;-55
2021/04/09 08:25:17;;;;;;;3.55;1.95;;;;;;;;;;5121203;27;20039;-53
2021/04/09 08:27:43;;;;;;;3.95;2.25;;;;;;;;;;5115766;27;20047;-49
2021/04/09 08:30:08;;;;;;;2.40;1.10;;;;;;;;;;5123926;27;20110;-53
2021/04/09 08:32:34;;;;;;;4.78;2.58;;;;;;;;;;5123335;27;20099;-49
2021/04/09 08:35:00;;;;;;;4.13;2.58;;;;;;;;;;5130544;27;20031;-55
2021/04/09 08:37:25;;;;;;;4.03;2.25;;;;;;;;;;5132540;27;20081;-54
2021/04/09 08:39:51;;;;;;;4.60;2.10;;;;;;;;;;5123510;27;20076;-51
2021/04/09 08:42:17;;;;;;;2.28;1.13;;;;;;;;;;5119332;27;20411;-53
2021/04/09 08:44:42;;;;;;;3.40;1.70;;;;;;;;;;5120539;27;20049;-53
2021/04/09 08:47:08;;;;;;;2.50;1.33;;;;;;;;;;5131403;27;20027;-55
2021/04/09 08:49:33;;;;;;;4.05;1.67;;;;;;;;;;5129740;27;20027;-55
2021/04/09 08:51:59;;;;;;;3.72;2.53;;;;;;;;;;5125748;27;20042;-55
2021/04/09 08:54:30;;;;;;;5.32;2.85;;;;;;;;;;5124477;27;20051;-55
2021/04/09 08:56:56;;;;;;;4.25;2.42;;;;;;;;;;5118495;27;20031;-50
2021/04/09 08:59:40;;;;;;;4.95;1.92;;;;;;;;;;5125766;27;20080;-54
2021/04/09 09:02:19;;;;;;;4.93;1.35;;;;;;;;;;5125897;27;20335;-53
2021/04/09 09:05:11;;;;;;;4.20;2.92;;;;;;;;;;5131140;27;20355;-51
2021/04/09 09:07:48;;;;;;;3.80;2.35;;;;;;;;;;5115045;27;20111;-53
2021/04/09 09:10:19;;;;;;;8.07;2.30;;;;;;;;;;5125385;27;20076;-48
2021/04/09 09:13:04;;;;;;;3.08;2.25;;;;;;;;;;5131669;27;20023;-52
2021/04/09 09:15:42;;;;;;;4.40;2.20;;;;;;;;;;5125605;27;20019;-53
2021/04/09 09:18:28;;;;;;;4.18;2.08;;;;;;;;;;5129624;27;20106;-52
2021/04/09 09:20:53;;;;;;;;;;;;;;;;;;5107614;27;20038;-54
2021/04/09 09:23:18;;;;;;;3.03;1.98;;;;;;;;;;5131212;27;19907;-50
2021/04/09 09:25:43;;;;;;;3.20;2.20;;;;;;;;;;5129864;27;20045;-50
2021/04/09 09:28:09;;;;;;;3.28;1.85;;;;;;;;;;5131333;27;20019;-51
2021/04/09 09:30:37;;;;;;;2.05;1.35;;;;;;;;;;5131465;27;20030;-53
2021/04/09 09:33:22;;;;;;;3.75;2.17;;;;;;;;;;5130492;27;20023;-49
2021/04/09 09:35:53;;;;;;;5.78;3.03;;;;;;;;;;5115430;27;20105;-53
2021/04/09 09:38:37;;;;;;;3.40;2.72;;;;;;;;;;5116112;27;20030;-54
2021/04/09 09:41:02;;;;;;;5.22;3.38;;;;;;;;;;5122387;27;20030;-50
2021/04/09 09:43:31;;;;;;;4.07;2.53;;;;;;;;;;5130689;27;20015;-50
2021/04/09 09:45:56;;;;;;;3.05;2.40;;;;;;;;;;5134165;27;20012;-55
2021/04/09 09:48:22;;;;;;;4.18;1.98;;;;;;;;;;5120099;27;20016;-52
2021/04/09 09:50:47;;;;;;;2.65;1.95;;;;;;;;;;5113754;27;20448;-49
2021/04/09 09:53:12;;;;;;;2.72;2.13;;;;;;;;;;5123717;27;20074;-53
2021/04/09 09:55:41;;;;;;;4.22;2.10;;;;;;;;;;5128205;27;20015;-49
2021/04/09 09:58:11;;;;;;;4.63;2.38;;;;;;;;;;5127648;27;20023;-51
2021/04/09 10:00:37;;;;;;;3.63;2.47;;;;;;;;;;5132686;27;20025;-50
2021/04/09 10:03:12;;;;;;;2.20;1.60;;;;;;;;;;5129122;27;20544;-51
2021/04/09 10:05:37;;;;;;;;;;;;;;;;;;5123067;27;20019;-49
2021/04/09 10:08:06;;;;;;;2.90;1.20;;;;;;;;;;5128226;27;19922;-52
2021/04/09 10:10:36;;;;;;;4.65;1.50;;;;;;;;;;5127949;27;20034;-51
2021/04/09 10:13:19;;;;;;;3.45;1.48;;;;;;;;;;5116065;27;20015;-54
2021/04/09 10:15:45;;;;;;;5.78;2.05;;;;;;;;;;5114633;27;20027;-54
2021/04/09 10:18:10;;;;;;;4.78;2.03;;;;;;;;;;5111933;27;20023;-54
2021/04/09 10:20:35;;;;;;;3.08;2.20;;;;;;;;;;5128418;27;20083;-53
2021/04/09 10:23:01;;;;;;;2.20;0.88;;;;;;;;;;5123252;27;20012;-48
2021/04/09 10:25:29;;;;;;;2.47;1.35;;;;;;;;;;5125274;27;20098;-49
2021/04/09 10:27:55;;;;;;;4.20;2.25;;;;;;;;;;5121552;27;20016;-53
2021/04/09 10:30:31;;;;;;;2.55;1.30;;;;;;;;;;5128282;27;20026;-54
2021/04/09 10:32:56;;;;;;;4.25;2.35;;;;;;;;;;5128882;27;20023;-49
2021/04/09 10:35:22;;;;;;;3.40;1.58;;;;;;;;;;5132328;27;20432;-53
2021/04/09 10:37:47;;;;;;;3.17;1.90;;;;;;;;;;5118234;27;20027;-53
2021/04/09 10:40:13;;;;;;;3.58;2.97;;;;;;;;;;5124348;27;20103;-52
2021/04/09 10:42:38;;;;;;;3.58;2.20;;;;;;;;;;5118510;27;20015;-51
2021/04/09 10:45:17;;;;;;;3.97;2.92;;;;;;;;;;5123747;27;20035;-53
2021/04/09 10:47:42;;;;;;;5.43;2.70;;;;;;;;;;5128703;27;20019;-53
2021/04/09 10:50:08;;;;;;;5.60;3.20;;;;;;;;;;5130247;27;20012;-55
2021/04/09 10:52:34;;;;;;;4.50;2.83;;;;;;;;;;5129395;27;20027;-49
2021/04/09 10:55:03;;;;;;;4.03;3.25;;;;;;;;;;5121447;27;20020;-53
2021/04/09 10:57:33;;;;;;;6.72;3.45;;;;;;;;;;5124033;28;20047;-51
2021/04/09 10:59:58;;;;;;;4.20;3.17;;;;;;;;;;5114427;28;20110;-55
2021/04/09 11:02:24;;;;;;;3.85;2.88;;;;;;;;;;5129821;28;20110;-56
2021/04/09 11:04:51;;;;;;;3.55;2.75;;;;;;;;;;5124756;27;20205;-53
2021/04/09 11:07:16;;;;;;;3.60;2.20;;;;;;;;;;5126582;27;20029;-52
2021/04/09 11:09:47;;;;;;;3.08;1.77;;;;;;;;;;5113870;28;20473;-54
2021/04/09 11:12:16;;;;;;;5.38;2.40;;;;;;;;;;5125070;28;20143;-56
2021/04/09 11:14:42;;;;;;;3.53;2.72;;;;;;;;;;5114692;28;20067;-54
2021/04/09 11:17:07;;;;;;;6.53;2.78;;;;;;;;;;5117673;28;20034;-52
2021/04/09 11:19:33;;;;;;;4.32;2.83;;;;;;;;;;5120389;27;20019;-54
2021/04/09 11:22:01;;;;;;;5.03;3.70;;;;;;;;;;5130493;27;20022;-53
2021/04/09 11:24:35;;;;;;;4.30;3.30;;;;;;;;;;5126676;27;20019;-53
2021/04/09 11:27:01;;;;;;;5.13;3.40;;;;;;;;;;5131721;27;20030;-52
2021/04/09 11:29:27;;;;;;;4.32;2.95;;;;;;;;;;5116651;27;20012;-53
2021/04/09 11:32:05;;;;;;;4.35;3.40;;;;;;;;;;5112940;27;20481;-52
2021/04/09 11:34:33;;;;;;;4.15;3.72;;;;;;;;;;5134286;27;20424;-55
2021/04/09 11:36:58;;;;;;;4.53;3.60;;;;;;;;;;5124428;27;20425;-53
2021/04/09 11:39:24;;;;;;;4.55;3.97;;;;;;;;;;5125743;27;20023;-54
2021/04/09 11:41:56;;;;;;;5.38;3.33;;;;;;;;;;5119861;27;20020;-55
2021/04/09 11:44:25;;;;;;;5.47;2.80;;;;;;;;;;5136307;27;20022;-54
2021/04/09 11:46:50;;;;;;;3.30;2.25;;;;;;;;;;5129084;27;20015;-53
2021/04/09 11:49:15;;;;;;;3.65;3.35;;;;;;;;;;5125539;27;20486;-56
2021/04/09 11:51:41;;;;;;;4.38;2.90;;;;;;;;;;5132723;27;20058;-55
2021/04/09 11:54:10;;;;;;;4.53;3.17;;;;;;;;;;5135685;27;20047;-55
2021/04/09 11:56:41;;;;;;;6.70;3.83;;;;;;;;;;5126270;27;20027;-56
2021/04/09 11:59:14;;;;;;;3.97;2.15;;;;;;;;;;5129706;27;20023;-54
2021/04/09 12:01:41;;;;;;;5.10;3.67;;;;;;;;;;5125483;27;20019;-55
2021/04/09 12:04:06;;;;;;;5.65;2.92;;;;;;;;;;5133847;27;20019;-55
2021/04/09 12:06:36;;;;;;;4.72;3.17;;;;;;;;;;5127456;27;20386;-53
2021/04/09 12:09:01;;;;;;;3.85;3.10;;;;;;;;;;5123128;27;20024;-53
2021/04/09 12:11:26;;;;;;;6.15;3.30;;;;;;;;;;5126537;27;20019;-55
2021/04/09 12:13:51;;;;;;;5.13;3.85;;;;;;;;;;5115152;28;20031;-54
2021/04/09 12:16:17;;;;;;;4.38;3.97;;;;;;;;;;5120347;27;20027;-53
2021/04/09 12:18:42;;;;;;;5.22;3.30;;;;;;;;;;5115544;28;20020;-50
2021/04/09 12:21:07;;;;;;;4.22;3.75;;;;;;;;;;5123702;27;20208;-60
2021/04/09 12:23:32;;;;;;;3.35;2.65;;;;;;;;;;5129355;27;20027;-56
2021/04/09 12:25:58;;;;;;;5.18;3.60;;;;;;;;;;5128105;27;20553;-54
2021/04/09 12:28:24;;;;;;;4.68;3.83;;;;;;;;;;5125680;27;20015;-55
2021/04/09 12:30:49;;;;;;;4.90;3.47;;;;;;;;;;5123833;27;20019;-55
2021/04/09 12:33:15;;;;;;;3.40;1.90;;;;;;;;;;5120527;27;20069;-49
2021/04/09 12:35:40;;;;;;;3.90;3.50;;;;;;;;;;5127596;27;20023;-59
2021/04/09 12:38:05;;;;;;;4.05;3.10;;;;;;;;;;5127551;27;20015;-56
2021/04/09 12:40:30;;;;;;;3.67;3.35;;;;;;;;;;5125989;27;20023;-56
2021/04/09 12:42:55;;;;;;;4.90;3.13;;;;;;;;;;5122619;27;20024;-56
2021/04/09 12:45:21;;;;;;;5.70;3.78;;;;;;;;;;5131353;27;20023;-57
2021/04/09 12:47:47;;;;;;;6.22;3.40;;;;;;;;;;5128578;27;20015;-55
2021/04/09 12:50:12;;;;;;;6.20;4.13;;;;;;;;;;5117486;27;20064;-58
2021/04/09 12:52:37;;;;;;;6.20;3.80;;;;;;;;;;5125607;27;20022;-58
2021/04/09 12:55:02;;;;;;;5.30;4.10;;;;;;;;;;5119403;27;20073;-54
2021/04/09 12:57:28;;;;;;;3.83;3.35;;;;;;;;;;5128209;27;20026;-57
2021/04/09 12:59:53;;;;;;;4.32;3.30;;;;;;;;;;5121511;27;20540;-58
2021/04/09 13:02:18;;;;;;;3.25;2.20;;;;;;;;;;5116703;27;20019;-57
2021/04/09 13:04:43;;;;;;;5.28;2.83;;;;;;;;;;5129302;27;20015;-58
2021/04/09 13:07:09;;;;;;;3.70;3.15;;;;;;;;;;5124315;27;20051;-57
2021/04/09 13:09:34;;;;;;;4.65;3.30;;;;;;;;;;5123148;27;20015;-59
2021/04/09 13:11:59;;;;;;;3.50;2.97;;;;;;;;;;5124343;27;20034;-56
2021/04/09 13:14:24;;;;;;;4.63;2.80;;;;;;;;;;5134833;27;20071;-58
2021/04/09 13:16:50;;;;;;;5.30;3.13;;;;;;;;;;5120722;27;20022;-58
2021/04/09 13:19:16;;;;;;;4.50;2.72;;;;;;;;;;5114234;28;20467;-58
2021/04/09 13:21:42;;;;;;;3.95;3.20;;;;;;;;;;5126848;27;20022;-59
2021/04/09 13:24:07;;;;;;;3.83;3.20;;;;;;;;;;5135126;27;20015;-58
2021/04/09 13:26:32;;;;;;;5.05;2.83;;;;;;;;;;5128859;27;20215;-57
2021/04/09 13:28:58;;;;;;;4.63;3.45;;;;;;;;;;5126708;27;20019;-58
2021/04/09 13:31:23;;;;;;;4.70;3.40;;;;;;;;;;5123502;27;20011;-57
2021/04/09 13:33:48;;;;;;;3.70;2.67;;;;;;;;;;5116368;27;20035;-59
2021/04/09 13:36:14;;;;;;;4.60;3.20;;;;;;;;;;5114123;28;20084;-58
2021/04/09 13:38:40;;;;;;;5.85;3.08;;;;;;;;;;5114963;27;20027;-57
2021/04/09 13:41:06;;;;;;;5.03;3.45;;;;;;;;;;5122291;27;20050;-57
2021/04/09 13:43:31;;;;;;;3.50;2.13;;;;;;;;;;5129957;27;20474;-59
2021/04/09 13:45:56;;;;;;;4.43;2.63;;;;;;;;;;5124191;27;20068;-58
2021/04/09 13:48:24;;;;;;;4.28;3.15;;;;;;;;;;5128358;27;20524;-55
2021/04/09 13:50:50;;;;;;;2.60;2.35;;;;;;;;;;5121647;27;20050;-58
2021/04/09 13:53:15;;;;;;;5.13;2.90;;;;;;;;;;5124001;27;20023;-60
2021/04/09 13:55:40;;;;;;;5.40;3.50;;;;;;;;;;5125501;27;20016;-60
2021/04/09 13:58:06;;;;;;;4.13;3.70;;;;;;;;;;5127808;27;20035;-59
2021/04/09 14:00:32;;;;;;;3.42;2.60;;;;;;;;;;5132523;27;20026;-58
2021/04/09 14:02:57;;;;;;;5.15;2.45;;;;;;;;;;5125878;27;20356;-56
2021/04/09 14:05:23;;;;;;;4.25;2.97;;;;;;;;;;5129565;27;20071;-57
2021/04/09 14:07:48;;;;;;;2.70;1.48;;;;;;;;;;5123768;27;20020;-57
2021/04/09 14:10:15;;;;;;;6.00;2.78;;;;;;;;;;5122788;27;20019;-58
2021/04/09 14:12:41;;;;;;;5.35;2.72;;;;;;;;;;5118149;27;20015;-57
2021/04/09 14:15:06;;;;;;;5.32;3.20;;;;;;;;;;5126197;27;20156;-60
2021/04/09 14:17:32;;;;;;;3.70;3.20;;;;;;;;;;5120258;27;20044;-60
2021/04/09 14:19:57;;;;;;;4.32;3.08;;;;;;;;;;5127924;27;20027;-57
2021/04/09 14:22:22;;;;;;;4.20;2.95;;;;;;;;;;5115656;27;20024;-62
2021/04/09 14:24:48;;;;;;;3.72;2.83;;;;;;;;;;5129859;27;20026;-61
2021/04/09 14:27:13;;;;;;;4.30;3.40;;;;;;;;;;5117956;27;20033;-58
2021/04/09 14:29:38;;;;;;;3.55;3.25;;;;;;;;;;5125686;27;20485;-60
2021/04/09 14:32:03;;;;;;;4.40;2.70;;;;;;;;;;5114488;27;20046;-61
2021/04/09 14:34:29;;;;;;;4.63;2.78;;;;;;;;;;5132319;27;20023;-57
2021/04/09 14:36:54;;;;;;;3.70;3.35;;;;;;;;;;5133081;27;20047;-59
2021/04/09 14:39:19;;;;;;;5.78;3.33;;;;;;;;;;5119205;27;20038;-58
2021/04/09 14:41:44;;;;;;;4.40;3.35;;;;;;;;;;5118068;27;20189;-60